sensor_id;sensor_type;location;lat;lon;timestamp;P1;durP1;ratioP1;P2;durP2;ratioP2
38715;SDS011;24833;49.324;8.694;2023-04-25T00:00:15;2.20;;;2.00;;
38715;SDS011;24833;49.324;8.694;2023-04-25T00:02:43;2.30;;;2.08;;
38715;SDS011;24833;49.324;8.694;2023-04-25T00:05:10;2.38;;;2.17;;
38715;SDS011;24833;49.324;8.694;2023-04-25T00:07:38;2.45;;;2.25;;
38715;SDS011;24833;49.324;8.694;2023-04-25T00:10:05;2.35;;;2.00;;
38715;SDS011;24833;49.324;8.694;2023-04-25T00:12:33;2.45;;;2.10;;
38715;SDS011;24833;49.324;8.694;2023-04-25T00:15:02;2.25;;;1.98;;
38715;SDS011;24833;49.324;8.694;2023-04-25T00:17:30;2.78;;;2.03;;
38715;SDS011;24833;49.324;8.694;2023-04-25T00:19:57;2.60;;;2.22;;
38715;SDS011;24833;49.324;8.694;2023-04-25T00:22:24;4.15;;;2.55;;
38715;SDS011;24833;49.324;8.694;2023-04-25T00:24:51;2.47;;;2.28;;
38715;SDS011;24833;49.324;8.694;2023-04-25T00:27:19;2.47;;;2.20;;
38715;SDS011;24833;49.324;8.694;2023-04-25T00:29:46;3.30;;;2.92;;
38715;SDS011;24833;49.324;8.694;2023-04-25T00:32:13;3.17;;;2.47;;
38715;SDS011;24833;49.324;8.694;2023-04-25T00:34:40;2.70;;;2.30;;
38715;SDS011;24833;49.324;8.694;2023-04-25T00:37:07;3.58;;;2.70;;
38715;SDS011;24833;49.324;8.694;2023-04-25T00:39:34;2.50;;;2.30;;
38715;SDS011;24833;49.324;8.694;2023-04-25T00:42:01;2.90;;;2.28;;
38715;SDS011;24833;49.324;8.694;2023-04-25T00:44:29;2.55;;;2.35;;
38715;SDS011;24833;49.324;8.694;2023-04-25T00:46:58;2.65;;;2.45;;
38715;SDS011;24833;49.324;8.694;2023-04-25T00:49:27;4.18;;;2.95;;
38715;SDS011;24833;49.324;8.694;2023-04-25T00:51:54;9.43;;;4.80;;
38715;SDS011;24833;49.324;8.694;2023-04-25T00:54:22;8.50;;;6.32;;
38715;SDS011;24833;49.324;8.694;2023-04-25T00:56:50;10.35;;;6.90;;
38715;SDS011;24833;49.324;8.694;2023-04-25T00:59:17;7.45;;;4.63;;
38715;SDS011;24833;49.324;8.694;2023-04-25T01:01:46;4.90;;;3.28;;
38715;SDS011;24833;49.324;8.694;2023-04-25T01:04:13;3.90;;;2.95;;
38715;SDS011;24833;49.324;8.694;2023-04-25T01:06:41;3.75;;;3.25;;
38715;SDS011;24833;49.324;8.694;2023-04-25T01:09:09;2.92;;;2.45;;
38715;SDS011;24833;49.324;8.694;2023-04-25T01:11:36;3.40;;;2.63;;
38715;SDS011;24833;49.324;8.694;2023-04-25T01:14:03;3.63;;;2.80;;
38715;SDS011;24833;49.324;8.694;2023-04-25T01:16:30;2.90;;;2.45;;
38715;SDS011;24833;49.324;8.694;2023-04-25T01:18:59;2.95;;;2.38;;
38715;SDS011;24833;49.324;8.694;2023-04-25T01:21:26;3.53;;;2.65;;
38715;SDS011;24833;49.324;8.694;2023-04-25T01:23:56;2.95;;;2.42;;
38715;SDS011;24833;49.324;8.694;2023-04-25T01:26:23;6.18;;;2.90;;
38715;SDS011;24833;49.324;8.694;2023-04-25T01:28:51;2.97;;;2.60;;
38715;SDS011;24833;49.324;8.694;2023-04-25T01:31:18;3.45;;;2.88;;
38715;SDS011;24833;49.324;8.694;2023-04-25T01:33:46;2.97;;;2.40;;
38715;SDS011;24833;49.324;8.694;2023-04-25T01:36:15;3.03;;;2.30;;
38715;SDS011;24833;49.324;8.694;2023-04-25T01:38:42;2.72;;;2.47;;
38715;SDS011;24833;49.324;8.694;2023-04-25T01:41:10;3.13;;;2.45;;
38715;SDS011;24833;49.324;8.694;2023-04-25T01:43:37;2.65;;;2.45;;
38715;SDS011;24833;49.324;8.694;2023-04-25T01:46:04;2.60;;;2.40;;
38715;SDS011;24833;49.324;8.694;2023-04-25T01:48:32;3.13;;;2.83;;
38715;SDS011;24833;49.324;8.694;2023-04-25T01:50:59;2.97;;;2.47;;
38715;SDS011;24833;49.324;8.694;2023-04-25T01:53:27;2.75;;;2.55;;
38715;SDS011;24833;49.324;8.694;2023-04-25T01:55:55;3.55;;;2.45;;
38715;SDS011;24833;49.324;8.694;2023-04-25T01:58:25;2.97;;;2.67;;
38715;SDS011;24833;49.324;8.694;2023-04-25T02:01:06;5.68;;;3.05;;
38715;SDS011;24833;49.324;8.694;2023-04-25T02:03:41;3.25;;;2.70;;
38715;SDS011;24833;49.324;8.694;2023-04-25T02:06:16;4.03;;;2.83;;
38715;SDS011;24833;49.324;8.694;2023-04-25T02:08:46;3.00;;;2.63;;
38715;SDS011;24833;49.324;8.694;2023-04-25T02:11:15;3.03;;;2.60;;
38715;SDS011;24833;49.324;8.694;2023-04-25T02:13:52;2.70;;;2.45;;
38715;SDS011;24833;49.324;8.694;2023-04-25T02:16:40;2.67;;;2.15;;
38715;SDS011;24833;49.324;8.694;2023-04-25T02:19:07;3.05;;;2.20;;
38715;SDS011;24833;49.324;8.694;2023-04-25T02:21:34;2.92;;;2.63;;
38715;SDS011;24833;49.324;8.694;2023-04-25T02:24:03;4.60;;;2.17;;
38715;SDS011;24833;49.324;8.694;2023-04-25T02:26:30;3.33;;;2.55;;
38715;SDS011;24833;49.324;8.694;2023-04-25T02:28:57;2.75;;;2.53;;
38715;SDS011;24833;49.324;8.694;2023-04-25T02:31:24;2.17;;;1.98;;
38715;SDS011;24833;49.324;8.694;2023-04-25T02:33:52;2.45;;;2.17;;
38715;SDS011;24833;49.324;8.694;2023-04-25T02:36:19;2.60;;;2.30;;
38715;SDS011;24833;49.324;8.694;2023-04-25T02:38:47;2.80;;;2.30;;
38715;SDS011;24833;49.324;8.694;2023-04-25T02:41:14;2.72;;;1.90;;
38715;SDS011;24833;49.324;8.694;2023-04-25T02:43:41;2.35;;;2.15;;
38715;SDS011;24833;49.324;8.694;2023-04-25T02:46:08;2.53;;;2.17;;
38715;SDS011;24833;49.324;8.694;2023-04-25T02:48:35;3.25;;;2.15;;
38715;SDS011;24833;49.324;8.694;2023-04-25T02:51:02;2.63;;;2.35;;
38715;SDS011;24833;49.324;8.694;2023-04-25T02:53:30;3.33;;;2.33;;
38715;SDS011;24833;49.324;8.694;2023-04-25T02:55:57;2.55;;;2.33;;
38715;SDS011;24833;49.324;8.694;2023-04-25T02:58:25;2.75;;;2.22;;
38715;SDS011;24833;49.324;8.694;2023-04-25T03:00:53;2.30;;;2.10;;
38715;SDS011;24833;49.324;8.694;2023-04-25T03:03:21;2.90;;;2.05;;
38715;SDS011;24833;49.324;8.694;2023-04-25T03:05:50;2.67;;;2.45;;
38715;SDS011;24833;49.324;8.694;2023-04-25T03:08:22;3.28;;;2.45;;
38715;SDS011;24833;49.324;8.694;2023-04-25T03:10:49;3.22;;;2.40;;
38715;SDS011;24833;49.324;8.694;2023-04-25T03:13:17;2.65;;;2.45;;
38715;SDS011;24833;49.324;8.694;2023-04-25T03:15:45;2.40;;;2.20;;
38715;SDS011;24833;49.324;8.694;2023-04-25T03:18:12;3.08;;;2.78;;
38715;SDS011;24833;49.324;8.694;2023-04-25T03:20:39;3.70;;;2.75;;
38715;SDS011;24833;49.324;8.694;2023-04-25T03:23:08;2.78;;;2.50;;
38715;SDS011;24833;49.324;8.694;2023-04-25T03:25:36;3.63;;;2.90;;
38715;SDS011;24833;49.324;8.694;2023-04-25T03:28:03;3.00;;;2.70;;
38715;SDS011;24833;49.324;8.694;2023-04-25T03:30:31;3.67;;;2.92;;
38715;SDS011;24833;49.324;8.694;2023-04-25T03:32:58;4.53;;;2.78;;
38715;SDS011;24833;49.324;8.694;2023-04-25T03:35:25;3.38;;;2.83;;
38715;SDS011;24833;49.324;8.694;2023-04-25T03:37:53;2.78;;;2.58;;
38715;SDS011;24833;49.324;8.694;2023-04-25T03:40:25;2.83;;;2.60;;
38715;SDS011;24833;49.324;8.694;2023-04-25T03:43:11;2.67;;;2.38;;
38715;SDS011;24833;49.324;8.694;2023-04-25T03:45:43;4.05;;;3.00;;
38715;SDS011;24833;49.324;8.694;2023-04-25T03:48:11;2.85;;;2.65;;
38715;SDS011;24833;49.324;8.694;2023-04-25T03:50:38;2.80;;;2.35;;
38715;SDS011;24833;49.324;8.694;2023-04-25T03:53:05;2.83;;;2.63;;
38715;SDS011;24833;49.324;8.694;2023-04-25T03:55:52;4.50;;;2.85;;
38715;SDS011;24833;49.324;8.694;2023-04-25T03:58:19;2.97;;;2.67;;
38715;SDS011;24833;49.324;8.694;2023-04-25T04:00:47;3.00;;;2.75;;
38715;SDS011;24833;49.324;8.694;2023-04-25T04:03:14;3.25;;;2.78;;
38715;SDS011;24833;49.324;8.694;2023-04-25T04:05:41;3.15;;;2.65;;
38715;SDS011;24833;49.324;8.694;2023-04-25T04:08:08;2.72;;;2.50;;
38715;SDS011;24833;49.324;8.694;2023-04-25T04:10:37;2.95;;;2.63;;
38715;SDS011;24833;49.324;8.694;2023-04-25T04:13:04;3.65;;;2.63;;
38715;SDS011;24833;49.324;8.694;2023-04-25T04:15:31;3.05;;;2.75;;
38715;SDS011;24833;49.324;8.694;2023-04-25T04:17:59;3.72;;;2.67;;
38715;SDS011;24833;49.324;8.694;2023-04-25T04:20:29;3.33;;;2.92;;
38715;SDS011;24833;49.324;8.694;2023-04-25T04:22:56;3.83;;;3.15;;
38715;SDS011;24833;49.324;8.694;2023-04-25T04:25:24;4.00;;;3.22;;
38715;SDS011;24833;49.324;8.694;2023-04-25T04:28:03;3.17;;;2.85;;
38715;SDS011;24833;49.324;8.694;2023-04-25T04:30:54;3.70;;;3.03;;
38715;SDS011;24833;49.324;8.694;2023-04-25T04:33:21;4.15;;;2.90;;
38715;SDS011;24833;49.324;8.694;2023-04-25T04:35:55;3.55;;;3.08;;
38715;SDS011;24833;49.324;8.694;2023-04-25T04:38:22;3.45;;;2.97;;
38715;SDS011;24833;49.324;8.694;2023-04-25T04:40:51;3.38;;;3.08;;
38715;SDS011;24833;49.324;8.694;2023-04-25T04:43:24;3.25;;;2.95;;
38715;SDS011;24833;49.324;8.694;2023-04-25T04:46:22;3.92;;;3.53;;
38715;SDS011;24833;49.324;8.694;2023-04-25T04:49:10;3.55;;;3.22;;
38715;SDS011;24833;49.324;8.694;2023-04-25T04:51:52;3.42;;;3.00;;
38715;SDS011;24833;49.324;8.694;2023-04-25T04:54:36;3.72;;;3.40;;
38715;SDS011;24833;49.324;8.694;2023-04-25T04:57:23;3.83;;;3.25;;
38715;SDS011;24833;49.324;8.694;2023-04-25T05:00:17;3.92;;;3.53;;
38715;SDS011;24833;49.324;8.694;2023-04-25T05:03:02;5.05;;;3.72;;
38715;SDS011;24833;49.324;8.694;2023-04-25T05:05:59;3.38;;;3.08;;
38715;SDS011;24833;49.324;8.694;2023-04-25T05:08:26;4.07;;;3.50;;
38715;SDS011;24833;49.324;8.694;2023-04-25T05:13:57;5.70;;;3.28;;
38715;SDS011;24833;49.324;8.694;2023-04-25T05:16:44;4.15;;;3.55;;
38715;SDS011;24833;49.324;8.694;2023-04-25T05:19:30;3.90;;;3.50;;
38715;SDS011;24833;49.324;8.694;2023-04-25T05:22:14;4.25;;;3.85;;
38715;SDS011;24833;49.324;8.694;2023-04-25T05:25:08;4.10;;;3.45;;
38715;SDS011;24833;49.324;8.694;2023-04-25T05:27:54;3.75;;;2.92;;
38715;SDS011;24833;49.324;8.694;2023-04-25T05:30:34;3.35;;;3.05;;
38715;SDS011;24833;49.324;8.694;2023-04-25T05:33:06;3.78;;;3.05;;
38715;SDS011;24833;49.324;8.694;2023-04-25T05:35:33;3.65;;;3.22;;
38715;SDS011;24833;49.324;8.694;2023-04-25T05:38:00;3.22;;;2.92;;
38715;SDS011;24833;49.324;8.694;2023-04-25T05:40:48;3.63;;;3.28;;
38715;SDS011;24833;49.324;8.694;2023-04-25T05:43:31;3.55;;;2.90;;
38715;SDS011;24833;49.324;8.694;2023-04-25T05:46:15;3.45;;;3.13;;
38715;SDS011;24833;49.324;8.694;2023-04-25T05:49:13;3.05;;;2.67;;
38715;SDS011;24833;49.324;8.694;2023-04-25T05:51:56;3.78;;;3.17;;
38715;SDS011;24833;49.324;8.694;2023-04-25T05:54:36;3.53;;;3.22;;
38715;SDS011;24833;49.324;8.694;2023-04-25T05:57:03;4.03;;;3.08;;
38715;SDS011;24833;49.324;8.694;2023-04-25T05:59:31;3.85;;;3.45;;
38715;SDS011;24833;49.324;8.694;2023-04-25T06:01:58;3.35;;;3.03;;
38715;SDS011;24833;49.324;8.694;2023-04-25T06:04:27;3.70;;;3.40;;
38715;SDS011;24833;49.324;8.694;2023-04-25T06:06:55;4.50;;;3.60;;
38715;SDS011;24833;49.324;8.694;2023-04-25T06:09:22;4.05;;;3.65;;
38715;SDS011;24833;49.324;8.694;2023-04-25T06:11:52;4.10;;;3.70;;
38715;SDS011;24833;49.324;8.694;2023-04-25T06:14:20;4.93;;;4.05;;
38715;SDS011;24833;49.324;8.694;2023-04-25T06:16:54;4.00;;;3.60;;
38715;SDS011;24833;49.324;8.694;2023-04-25T06:19:21;3.63;;;3.33;;
38715;SDS011;24833;49.324;8.694;2023-04-25T06:21:48;4.47;;;4.03;;
38715;SDS011;24833;49.324;8.694;2023-04-25T06:24:15;5.20;;;3.63;;
38715;SDS011;24833;49.324;8.694;2023-04-25T06:26:43;4.80;;;3.78;;
38715;SDS011;24833;49.324;8.694;2023-04-25T06:29:10;4.00;;;3.58;;
38715;SDS011;24833;49.324;8.694;2023-04-25T06:31:37;4.50;;;4.00;;
38715;SDS011;24833;49.324;8.694;2023-04-25T06:34:05;4.75;;;4.03;;
38715;SDS011;24833;49.324;8.694;2023-04-25T06:39:07;3.95;;;3.50;;
38715;SDS011;24833;49.324;8.694;2023-04-25T06:41:37;4.53;;;3.70;;
38715;SDS011;24833;49.324;8.694;2023-04-25T06:44:06;4.70;;;3.97;;
38715;SDS011;24833;49.324;8.694;2023-04-25T06:46:38;4.68;;;3.78;;
38715;SDS011;24833;49.324;8.694;2023-04-25T06:49:05;4.40;;;4.00;;
38715;SDS011;24833;49.324;8.694;2023-04-25T06:51:32;4.45;;;4.05;;
38715;SDS011;24833;49.324;8.694;2023-04-25T06:54:00;4.45;;;3.95;;
38715;SDS011;24833;49.324;8.694;2023-04-25T06:56:33;5.40;;;4.07;;
38715;SDS011;24833;49.324;8.694;2023-04-25T06:59:06;4.72;;;4.10;;
38715;SDS011;24833;49.324;8.694;2023-04-25T07:01:36;5.05;;;4.47;;
38715;SDS011;24833;49.324;8.694;2023-04-25T07:04:08;4.70;;;4.22;;
38715;SDS011;24833;49.324;8.694;2023-04-25T07:06:40;5.82;;;4.55;;
38715;SDS011;24833;49.324;8.694;2023-04-25T07:09:09;5.60;;;4.47;;
38715;SDS011;24833;49.324;8.694;2023-04-25T07:11:37;5.78;;;4.50;;
38715;SDS011;24833;49.324;8.694;2023-04-25T07:14:04;5.10;;;4.60;;
38715;SDS011;24833;49.324;8.694;2023-04-25T07:16:32;4.85;;;4.32;;
38715;SDS011;24833;49.324;8.694;2023-04-25T07:19:01;5.32;;;4.82;;
38715;SDS011;24833;49.324;8.694;2023-04-25T07:21:28;5.63;;;4.63;;
38715;SDS011;24833;49.324;8.694;2023-04-25T07:24:00;5.60;;;5.07;;
38715;SDS011;24833;49.324;8.694;2023-04-25T07:26:32;6.22;;;4.28;;
38715;SDS011;24833;49.324;8.694;2023-04-25T07:29:28;8.70;;;5.38;;
38715;SDS011;24833;49.324;8.694;2023-04-25T07:31:58;7.88;;;5.22;;
38715;SDS011;24833;49.324;8.694;2023-04-25T07:34:25;6.50;;;4.97;;
38715;SDS011;24833;49.324;8.694;2023-04-25T07:36:52;5.80;;;4.72;;
38715;SDS011;24833;49.324;8.694;2023-04-25T07:39:21;9.23;;;6.28;;
38715;SDS011;24833;49.324;8.694;2023-04-25T07:41:49;8.02;;;5.82;;
38715;SDS011;24833;49.324;8.694;2023-04-25T07:44:23;8.27;;;5.55;;
38715;SDS011;24833;49.324;8.694;2023-04-25T07:46:51;7.85;;;6.13;;
38715;SDS011;24833;49.324;8.694;2023-04-25T07:49:18;7.85;;;5.75;;
38715;SDS011;24833;49.324;8.694;2023-04-25T07:51:45;9.23;;;6.28;;
38715;SDS011;24833;49.324;8.694;2023-04-25T07:54:15;7.25;;;5.45;;
38715;SDS011;24833;49.324;8.694;2023-04-25T07:56:48;7.50;;;5.90;;
38715;SDS011;24833;49.324;8.694;2023-04-25T07:59:22;10.25;;;5.70;;
38715;SDS011;24833;49.324;8.694;2023-04-25T08:01:49;5.40;;;4.82;;
38715;SDS011;24833;49.324;8.694;2023-04-25T08:04:18;6.75;;;5.10;;
38715;SDS011;24833;49.324;8.694;2023-04-25T08:06:51;6.75;;;4.68;;
38715;SDS011;24833;49.324;8.694;2023-04-25T08:09:23;6.55;;;5.07;;
38715;SDS011;24833;49.324;8.694;2023-04-25T08:11:51;7.93;;;4.93;;
38715;SDS011;24833;49.324;8.694;2023-04-25T08:14:24;5.50;;;4.93;;
38715;SDS011;24833;49.324;8.694;2023-04-25T08:16:51;7.43;;;4.78;;
38715;SDS011;24833;49.324;8.694;2023-04-25T08:19:19;6.60;;;4.38;;
38715;SDS011;24833;49.324;8.694;2023-04-25T08:21:46;7.80;;;4.22;;
38715;SDS011;24833;49.324;8.694;2023-04-25T08:24:19;6.75;;;4.43;;
38715;SDS011;24833;49.324;8.694;2023-04-25T08:26:46;6.55;;;4.30;;
38715;SDS011;24833;49.324;8.694;2023-04-25T08:29:19;7.88;;;4.78;;
38715;SDS011;24833;49.324;8.694;2023-04-25T08:31:46;5.80;;;4.55;;
38715;SDS011;24833;49.324;8.694;2023-04-25T08:34:14;6.72;;;4.55;;
38715;SDS011;24833;49.324;8.694;2023-04-25T08:36:47;7.13;;;5.25;;
38715;SDS011;24833;49.324;8.694;2023-04-25T08:39:22;6.13;;;4.82;;
38715;SDS011;24833;49.324;8.694;2023-04-25T08:42:13;9.63;;;4.95;;
38715;SDS011;24833;49.324;8.694;2023-04-25T08:44:42;6.47;;;4.93;;
38715;SDS011;24833;49.324;8.694;2023-04-25T08:49:45;6.80;;;4.20;;
38715;SDS011;24833;49.324;8.694;2023-04-25T08:52:17;8.77;;;5.18;;
38715;SDS011;24833;49.324;8.694;2023-04-25T08:54:51;7.82;;;5.53;;
38715;SDS011;24833;49.324;8.694;2023-04-25T08:57:20;10.80;;;5.63;;
38715;SDS011;24833;49.324;8.694;2023-04-25T08:59:48;6.43;;;4.65;;
38715;SDS011;24833;49.324;8.694;2023-04-25T09:02:16;7.10;;;4.57;;
38715;SDS011;24833;49.324;8.694;2023-04-25T09:04:48;5.35;;;4.47;;
38715;SDS011;24833;49.324;8.694;2023-04-25T09:07:16;8.63;;;4.70;;
38715;SDS011;24833;49.324;8.694;2023-04-25T09:09:47;9.05;;;4.85;;
38715;SDS011;24833;49.324;8.694;2023-04-25T09:12:18;7.65;;;5.22;;
38715;SDS011;24833;49.324;8.694;2023-04-25T09:15:03;5.57;;;3.95;;
38715;SDS011;24833;49.324;8.694;2023-04-25T09:17:57;6.88;;;4.45;;
38715;SDS011;24833;49.324;8.694;2023-04-25T09:20:33;8.63;;;4.57;;
38715;SDS011;24833;49.324;8.694;2023-04-25T09:23:26;11.27;;;4.90;;
38715;SDS011;24833;49.324;8.694;2023-04-25T09:25:53;7.25;;;3.78;;
38715;SDS011;24833;49.324;8.694;2023-04-25T09:28:24;8.60;;;4.43;;
38715;SDS011;24833;49.324;8.694;2023-04-25T09:30:57;8.38;;;4.32;;
38715;SDS011;24833;49.324;8.694;2023-04-25T09:33:31;7.57;;;4.53;;
38715;SDS011;24833;49.324;8.694;2023-04-25T09:36:05;4.80;;;4.03;;
38715;SDS011;24833;49.324;8.694;2023-04-25T09:39:02;6.82;;;3.50;;
38715;SDS011;24833;49.324;8.694;2023-04-25T09:41:53;4.32;;;3.53;;
38715;SDS011;24833;49.324;8.694;2023-04-25T09:44:24;6.57;;;3.97;;
38715;SDS011;24833;49.324;8.694;2023-04-25T09:46:52;7.90;;;3.63;;
38715;SDS011;24833;49.324;8.694;2023-04-25T09:49:23;5.20;;;3.83;;
38715;SDS011;24833;49.324;8.694;2023-04-25T09:52:19;5.00;;;3.28;;
38715;SDS011;24833;49.324;8.694;2023-04-25T09:55:11;4.82;;;3.08;;
38715;SDS011;24833;49.324;8.694;2023-04-25T09:57:38;9.23;;;3.53;;
38715;SDS011;24833;49.324;8.694;2023-04-25T10:00:07;7.03;;;3.40;;
38715;SDS011;24833;49.324;8.694;2023-04-25T10:02:42;4.53;;;3.25;;
38715;SDS011;24833;49.324;8.694;2023-04-25T10:05:29;5.63;;;3.70;;
38715;SDS011;24833;49.324;8.694;2023-04-25T10:08:00;4.78;;;3.65;;
38715;SDS011;24833;49.324;8.694;2023-04-25T10:10:30;5.57;;;3.60;;
38715;SDS011;24833;49.324;8.694;2023-04-25T10:13:03;13.02;;;4.07;;
38715;SDS011;24833;49.324;8.694;2023-04-25T10:15:33;7.20;;;3.97;;
38715;SDS011;24833;49.324;8.694;2023-04-25T10:18:05;5.50;;;3.63;;
38715;SDS011;24833;49.324;8.694;2023-04-25T10:20:33;5.72;;;3.28;;
38715;SDS011;24833;49.324;8.694;2023-04-25T10:23:03;6.50;;;3.60;;
38715;SDS011;24833;49.324;8.694;2023-04-25T10:28:08;4.97;;;3.20;;
38715;SDS011;24833;49.324;8.694;2023-04-25T10:30:36;6.32;;;3.65;;
38715;SDS011;24833;49.324;8.694;2023-04-25T10:33:03;9.80;;;3.78;;
38715;SDS011;24833;49.324;8.694;2023-04-25T10:35:44;4.88;;;3.13;;
38715;SDS011;24833;49.324;8.694;2023-04-25T10:38:13;7.10;;;3.20;;
38715;SDS011;24833;49.324;8.694;2023-04-25T10:40:41;7.07;;;3.33;;
38715;SDS011;24833;49.324;8.694;2023-04-25T10:43:32;6.95;;;3.05;;
38715;SDS011;24833;49.324;8.694;2023-04-25T10:49:03;6.70;;;3.22;;
38715;SDS011;24833;49.324;8.694;2023-04-25T10:51:31;5.05;;;3.35;;
38715;SDS011;24833;49.324;8.694;2023-04-25T10:54:19;6.00;;;3.63;;
38715;SDS011;24833;49.324;8.694;2023-04-25T10:56:48;5.72;;;3.22;;
38715;SDS011;24833;49.324;8.694;2023-04-25T10:59:16;7.05;;;3.75;;
38715;SDS011;24833;49.324;8.694;2023-04-25T11:01:49;4.50;;;3.15;;
38715;SDS011;24833;49.324;8.694;2023-04-25T11:04:23;4.85;;;2.67;;
38715;SDS011;24833;49.324;8.694;2023-04-25T11:09:39;4.95;;;3.22;;
38715;SDS011;24833;49.324;8.694;2023-04-25T11:14:35;3.75;;;2.35;;
38715;SDS011;24833;49.324;8.694;2023-04-25T11:17:02;5.70;;;2.53;;
38715;SDS011;24833;49.324;8.694;2023-04-25T11:19:29;4.10;;;2.20;;
38715;SDS011;24833;49.324;8.694;2023-04-25T11:22:00;2.75;;;2.40;;
38715;SDS011;24833;49.324;8.694;2023-04-25T11:24:28;3.47;;;2.50;;
38715;SDS011;24833;49.324;8.694;2023-04-25T11:26:57;5.47;;;3.03;;
38715;SDS011;24833;49.324;8.694;2023-04-25T11:29:29;5.40;;;2.88;;
38715;SDS011;24833;49.324;8.694;2023-04-25T11:31:57;4.45;;;2.83;;
38715;SDS011;24833;49.324;8.694;2023-04-25T11:34:25;4.32;;;2.88;;
38715;SDS011;24833;49.324;8.694;2023-04-25T11:36:52;4.57;;;2.95;;
38715;SDS011;24833;49.324;8.694;2023-04-25T11:39:19;5.38;;;3.17;;
38715;SDS011;24833;49.324;8.694;2023-04-25T11:41:47;4.93;;;3.08;;
38715;SDS011;24833;49.324;8.694;2023-04-25T11:44:18;5.65;;;3.03;;
38715;SDS011;24833;49.324;8.694;2023-04-25T11:46:46;4.88;;;2.95;;
38715;SDS011;24833;49.324;8.694;2023-04-25T11:49:13;4.57;;;2.88;;
38715;SDS011;24833;49.324;8.694;2023-04-25T11:51:42;3.67;;;3.00;;
38715;SDS011;24833;49.324;8.694;2023-04-25T11:54:11;4.22;;;2.80;;
38715;SDS011;24833;49.324;8.694;2023-04-25T11:56:42;5.25;;;3.08;;
38715;SDS011;24833;49.324;8.694;2023-04-25T11:59:11;3.85;;;2.70;;
38715;SDS011;24833;49.324;8.694;2023-04-25T12:01:46;3.88;;;2.83;;
38715;SDS011;24833;49.324;8.694;2023-04-25T12:06:49;7.10;;;3.08;;
38715;SDS011;24833;49.324;8.694;2023-04-25T12:09:19;5.05;;;2.47;;
38715;SDS011;24833;49.324;8.694;2023-04-25T12:11:57;3.65;;;2.33;;
38715;SDS011;24833;49.324;8.694;2023-04-25T12:14:26;3.03;;;2.35;;
38715;SDS011;24833;49.324;8.694;2023-04-25T12:16:55;3.75;;;2.45;;
38715;SDS011;24833;49.324;8.694;2023-04-25T12:19:24;3.33;;;2.45;;
38715;SDS011;24833;49.324;8.694;2023-04-25T12:21:52;3.53;;;2.38;;
38715;SDS011;24833;49.324;8.694;2023-04-25T12:24:25;3.85;;;2.22;;
38715;SDS011;24833;49.324;8.694;2023-04-25T12:27:06;3.92;;;2.22;;
38715;SDS011;24833;49.324;8.694;2023-04-25T12:29:36;3.47;;;2.10;;
38715;SDS011;24833;49.324;8.694;2023-04-25T12:32:15;4.53;;;2.00;;
38715;SDS011;24833;49.324;8.694;2023-04-25T12:34:43;5.00;;;2.42;;
38715;SDS011;24833;49.324;8.694;2023-04-25T12:37:11;6.07;;;2.13;;
38715;SDS011;24833;49.324;8.694;2023-04-25T12:39:38;2.15;;;1.67;;
38715;SDS011;24833;49.324;8.694;2023-04-25T12:42:05;4.90;;;1.90;;
38715;SDS011;24833;49.324;8.694;2023-04-25T12:44:35;3.25;;;2.30;;
38715;SDS011;24833;49.324;8.694;2023-04-25T12:47:02;2.92;;;1.80;;
38715;SDS011;24833;49.324;8.694;2023-04-25T12:49:30;3.45;;;2.22;;
38715;SDS011;24833;49.324;8.694;2023-04-25T12:51:58;3.92;;;2.35;;
38715;SDS011;24833;49.324;8.694;2023-04-25T12:54:25;3.60;;;2.38;;
38715;SDS011;24833;49.324;8.694;2023-04-25T12:56:52;3.25;;;2.30;;
38715;SDS011;24833;49.324;8.694;2023-04-25T12:59:19;5.95;;;2.63;;
38715;SDS011;24833;49.324;8.694;2023-04-25T13:01:47;3.40;;;2.40;;
38715;SDS011;24833;49.324;8.694;2023-04-25T13:04:14;3.45;;;2.40;;
38715;SDS011;24833;49.324;8.694;2023-04-25T13:06:42;2.67;;;2.28;;
38715;SDS011;24833;49.324;8.694;2023-04-25T13:09:09;3.80;;;2.53;;
38715;SDS011;24833;49.324;8.694;2023-04-25T13:11:38;5.03;;;2.33;;
38715;SDS011;24833;49.324;8.694;2023-04-25T13:14:06;4.45;;;2.47;;
38715;SDS011;24833;49.324;8.694;2023-04-25T13:16:34;4.38;;;3.03;;
38715;SDS011;24833;49.324;8.694;2023-04-25T13:19:01;6.18;;;2.75;;
38715;SDS011;24833;49.324;8.694;2023-04-25T13:21:29;3.17;;;2.60;;
38715;SDS011;24833;49.324;8.694;2023-04-25T13:23:58;3.40;;;2.15;;
38715;SDS011;24833;49.324;8.694;2023-04-25T13:26:25;3.42;;;1.92;;
38715;SDS011;24833;49.324;8.694;2023-04-25T13:28:52;2.55;;;2.22;;
38715;SDS011;24833;49.324;8.694;2023-04-25T13:31:19;3.03;;;2.38;;
38715;SDS011;24833;49.324;8.694;2023-04-25T13:33:47;2.70;;;2.25;;
38715;SDS011;24833;49.324;8.694;2023-04-25T13:36:14;4.13;;;2.45;;
38715;SDS011;24833;49.324;8.694;2023-04-25T13:38:41;4.35;;;2.42;;
38715;SDS011;24833;49.324;8.694;2023-04-25T13:41:10;3.80;;;2.17;;
38715;SDS011;24833;49.324;8.694;2023-04-25T13:43:41;3.67;;;2.13;;
38715;SDS011;24833;49.324;8.694;2023-04-25T13:46:08;2.35;;;2.15;;
38715;SDS011;24833;49.324;8.694;2023-04-25T13:48:56;6.22;;;2.17;;
38715;SDS011;24833;49.324;8.694;2023-04-25T13:51:35;3.53;;;2.10;;
38715;SDS011;24833;49.324;8.694;2023-04-25T13:54:02;2.92;;;2.22;;
38715;SDS011;24833;49.324;8.694;2023-04-25T13:56:29;3.80;;;2.22;;
38715;SDS011;24833;49.324;8.694;2023-04-25T13:58:56;4.57;;;2.53;;
38715;SDS011;24833;49.324;8.694;2023-04-25T14:01:23;7.05;;;2.50;;
38715;SDS011;24833;49.324;8.694;2023-04-25T14:03:50;4.63;;;2.00;;
38715;SDS011;24833;49.324;8.694;2023-04-25T14:06:18;3.20;;;2.17;;
38715;SDS011;24833;49.324;8.694;2023-04-25T14:08:51;2.45;;;2.25;;
38715;SDS011;24833;49.324;8.694;2023-04-25T14:11:18;2.95;;;2.13;;
38715;SDS011;24833;49.324;8.694;2023-04-25T14:13:45;3.05;;;2.13;;
38715;SDS011;24833;49.324;8.694;2023-04-25T14:16:14;5.32;;;2.65;;
38715;SDS011;24833;49.324;8.694;2023-04-25T14:18:42;3.67;;;2.40;;
38715;SDS011;24833;49.324;8.694;2023-04-25T14:21:09;4.10;;;2.33;;
38715;SDS011;24833;49.324;8.694;2023-04-25T14:23:36;3.58;;;2.35;;
38715;SDS011;24833;49.324;8.694;2023-04-25T14:26:03;4.75;;;2.47;;
38715;SDS011;24833;49.324;8.694;2023-04-25T14:28:30;3.78;;;2.70;;
38715;SDS011;24833;49.324;8.694;2023-04-25T14:30:57;5.35;;;2.85;;
38715;SDS011;24833;49.324;8.694;2023-04-25T14:33:24;2.90;;;2.38;;
38715;SDS011;24833;49.324;8.694;2023-04-25T14:35:51;3.50;;;2.50;;
38715;SDS011;24833;49.324;8.694;2023-04-25T14:38:19;4.32;;;2.45;;
38715;SDS011;24833;49.324;8.694;2023-04-25T14:40:49;5.55;;;2.15;;
38715;SDS011;24833;49.324;8.694;2023-04-25T14:43:16;5.30;;;2.47;;
38715;SDS011;24833;49.324;8.694;2023-04-25T14:45:44;4.47;;;2.55;;
38715;SDS011;24833;49.324;8.694;2023-04-25T14:48:11;3.80;;;2.50;;
38715;SDS011;24833;49.324;8.694;2023-04-25T14:50:38;4.80;;;2.33;;
38715;SDS011;24833;49.324;8.694;2023-04-25T14:53:06;5.95;;;2.63;;
38715;SDS011;24833;49.324;8.694;2023-04-25T14:55:33;4.43;;;2.50;;
38715;SDS011;24833;49.324;8.694;2023-04-25T14:58:00;3.30;;;2.28;;
38715;SDS011;24833;49.324;8.694;2023-04-25T15:00:27;3.42;;;2.03;;
38715;SDS011;24833;49.324;8.694;2023-04-25T15:02:55;6.05;;;2.65;;
38715;SDS011;24833;49.324;8.694;2023-04-25T15:05:22;2.80;;;1.90;;
38715;SDS011;24833;49.324;8.694;2023-04-25T15:07:49;4.10;;;2.53;;
38715;SDS011;24833;49.324;8.694;2023-04-25T15:10:17;2.75;;;2.10;;
38715;SDS011;24833;49.324;8.694;2023-04-25T15:12:45;2.83;;;2.10;;
38715;SDS011;24833;49.324;8.694;2023-04-25T15:15:13;4.15;;;1.98;;
38715;SDS011;24833;49.324;8.694;2023-04-25T15:17:51;3.38;;;1.92;;
38715;SDS011;24833;49.324;8.694;2023-04-25T15:20:18;3.30;;;2.15;;
38715;SDS011;24833;49.324;8.694;2023-04-25T15:22:45;3.35;;;2.00;;
38715;SDS011;24833;49.324;8.694;2023-04-25T15:25:15;4.18;;;2.15;;
38715;SDS011;24833;49.324;8.694;2023-04-25T15:27:46;3.50;;;2.25;;
38715;SDS011;24833;49.324;8.694;2023-04-25T15:30:15;3.55;;;2.20;;